createdAt,value
2019-02-11T00:01:43.097Z,99.80
2019-02-11T00:04:10.821Z,99.80
2019-02-11T00:06:38.525Z,99.70
2019-02-11T00:09:08.045Z,99.70
2019-02-11T00:11:35.825Z,99.80
2019-02-11T00:14:03.549Z,99.90
2019-02-11T00:16:31.257Z,99.90
2019-02-11T00:18:58.997Z,99.90
2019-02-11T00:21:26.728Z,99.90
2019-02-11T00:23:54.496Z,99.90
2019-02-11T00:26:22.500Z,99.90
2019-02-11T00:28:50.338Z,99.90
2019-02-11T00:31:18.142Z,99.80
2019-02-11T00:33:45.808Z,99.80
2019-02-11T00:36:13.517Z,99.70
2019-02-11T00:38:41.269Z,99.70
2019-02-11T00:41:08.990Z,99.80
2019-02-11T00:43:36.768Z,99.90
2019-02-11T00:46:04.476Z,99.90
2019-02-11T00:48:32.229Z,99.90
2019-02-11T00:50:59.993Z,99.90
2019-02-11T00:53:27.813Z,99.90
2019-02-11T00:55:55.563Z,99.90
2019-02-11T00:58:23.268Z,99.90
2019-02-11T01:00:50.985Z,99.90
2019-02-11T01:03:18.744Z,99.90
2019-02-11T01:05:46.449Z,99.80
2019-02-11T01:08:14.178Z,99.90
2019-02-11T01:10:41.954Z,99.90
2019-02-11T01:13:09.690Z,99.90
2019-02-11T01:15:37.388Z,99.90
2019-02-11T01:18:05.023Z,99.90
2019-02-11T01:20:32.759Z,99.90
2019-02-11T01:23:00.461Z,99.90
2019-02-11T01:25:28.212Z,99.90
2019-02-11T01:27:55.927Z,99.90
2019-02-11T01:30:23.637Z,99.90
2019-02-11T01:32:51.349Z,99.90
2019-02-11T01:35:19.095Z,99.90
2019-02-11T01:37:46.809Z,99.90
2019-02-11T01:40:14.545Z,99.90
2019-02-11T01:42:42.270Z,99.90
2019-02-11T01:45:11.025Z,99.90
2019-02-11T01:47:38.717Z,99.90
2019-02-11T01:50:08.454Z,99.90
2019-02-11T01:52:36.178Z,99.90
2019-02-11T01:55:03.931Z,99.90
2019-02-11T01:57:31.642Z,99.90
2019-02-11T01:59:59.369Z,99.90
2019-02-11T02:02:27.084Z,99.90
2019-02-11T02:04:54.818Z,99.90
2019-02-11T02:07:22.531Z,99.90
2019-02-11T02:09:50.277Z,99.90
2019-02-11T02:12:18.053Z,99.90
2019-02-11T02:14:45.805Z,99.90
2019-02-11T02:17:13.508Z,99.90
2019-02-11T02:19:41.208Z,99.90
2019-02-11T02:22:08.944Z,99.90
2019-02-11T02:24:36.697Z,99.90
2019-02-11T02:27:04.414Z,99.90
2019-02-11T02:29:32.087Z,99.90
2019-02-11T02:31:59.900Z,99.90
2019-02-11T02:34:27.657Z,99.90
2019-02-11T02:36:55.368Z,99.90
2019-02-11T02:39:23.094Z,99.90
2019-02-11T02:41:50.871Z,99.90
2019-02-11T02:44:18.589Z,99.90
2019-02-11T02:46:46.326Z,99.90
2019-02-11T02:49:14.049Z,99.90
2019-02-11T02:51:41.798Z,99.90
2019-02-11T02:54:09.841Z,99.90
2019-02-11T02:56:37.568Z,99.90
2019-02-11T02:59:05.272Z,99.90
2019-02-11T03:01:33.046Z,99.90
2019-02-11T03:04:00.858Z,99.90
2019-02-11T03:06:28.574Z,99.90
2019-02-11T03:08:56.303Z,99.90
2019-02-11T03:11:24.047Z,99.90
2019-02-11T03:13:51.860Z,99.90
2019-02-11T03:16:19.603Z,99.90
2019-02-11T03:18:47.336Z,99.90
2019-02-11T03:21:15.054Z,99.90
2019-02-11T03:23:42.754Z,99.90
2019-02-11T03:26:10.530Z,99.90
2019-02-11T03:28:38.247Z,99.90
2019-02-11T03:31:06.001Z,99.90
2019-02-11T03:33:33.934Z,99.90
2019-02-11T03:36:01.669Z,99.90
2019-02-11T03:38:29.385Z,99.90
2019-02-11T03:40:57.127Z,99.90
2019-02-11T03:43:24.835Z,99.90
2019-02-11T03:45:52.608Z,99.90
2019-02-11T03:48:20.325Z,99.90
2019-02-11T03:50:48.064Z,99.90
2019-02-11T03:53:15.757Z,99.90
2019-02-11T03:55:43.487Z,99.90
2019-02-11T03:58:11.196Z,99.90
2019-02-11T04:00:38.901Z,99.90
2019-02-11T04:03:06.658Z,99.90
2019-02-11T04:05:34.383Z,99.90
2019-02-11T04:08:02.109Z,99.90
2019-02-11T04:10:29.822Z,99.90
2019-02-11T04:12:57.648Z,99.90
2019-02-11T04:15:25.319Z,99.90
2019-02-11T04:17:53.053Z,99.90
2019-02-11T04:20:20.760Z,99.90
2019-02-11T04:22:48.498Z,99.90
2019-02-11T04:25:16.206Z,99.90
2019-02-11T04:27:43.933Z,99.90
2019-02-11T04:30:11.653Z,99.90
2019-02-11T04:32:39.390Z,99.90
2019-02-11T04:35:07.126Z,99.90
2019-02-11T04:37:34.904Z,99.90
2019-02-11T04:40:02.621Z,99.90
2019-02-11T04:42:30.348Z,99.90
2019-02-11T04:44:58.072Z,99.90
2019-02-11T04:47:25.797Z,99.90
2019-02-11T04:49:53.538Z,99.90
2019-02-11T04:52:21.273Z,99.90
2019-02-11T04:54:48.982Z,99.90
2019-02-11T04:57:16.753Z,99.90
2019-02-11T04:59:44.481Z,99.90
2019-02-11T05:02:12.221Z,99.90
2019-02-11T05:04:39.970Z,99.90
2019-02-11T05:07:07.779Z,99.90
2019-02-11T05:09:35.444Z,99.90
2019-02-11T05:12:03.174Z,99.90
2019-02-11T05:14:30.943Z,99.90
2019-02-11T05:16:58.695Z,99.90
2019-02-11T05:19:45.791Z,99.90
2019-02-11T05:22:13.586Z,99.90
2019-02-11T05:24:41.310Z,99.90
2019-02-11T05:27:09.225Z,99.90
2019-02-11T05:29:36.946Z,99.90
2019-02-11T05:32:04.649Z,99.90
2019-02-11T05:34:32.374Z,99.90
2019-02-11T05:37:00.103Z,99.90
2019-02-11T05:39:27.833Z,99.90
2019-02-11T05:41:55.557Z,99.90
2019-02-11T05:44:23.340Z,99.90
2019-02-11T05:46:51.042Z,99.90
2019-02-11T05:49:18.789Z,99.90
2019-02-11T05:51:46.525Z,99.90
2019-02-11T05:54:14.285Z,99.90
2019-02-11T05:56:42.143Z,99.90
2019-02-11T05:59:09.882Z,99.90
2019-02-11T06:01:37.581Z,99.90
2019-02-11T06:04:05.334Z,99.90
2019-02-11T06:06:33.051Z,99.90
2019-02-11T06:09:00.838Z,99.90
2019-02-11T06:11:28.607Z,99.90
2019-02-11T06:13:56.391Z,99.90
2019-02-11T06:16:24.089Z,99.90
2019-02-11T06:18:51.841Z,99.90
2019-02-11T06:21:19.554Z,99.90
2019-02-11T06:23:47.301Z,99.90
2019-02-11T06:26:15.037Z,99.90
2019-02-11T06:28:43.005Z,99.90
2019-02-11T06:31:10.714Z,99.90
2019-02-11T06:33:38.485Z,99.90
2019-02-11T06:36:12.432Z,99.90
2019-02-11T06:38:35.749Z,99.90
2019-02-11T06:41:03.485Z,99.90
2019-02-11T06:43:31.229Z,99.90
2019-02-11T06:45:58.957Z,99.90
2019-02-11T06:48:26.722Z,99.90
2019-02-11T06:50:54.483Z,99.90
2019-02-11T06:53:22.198Z,99.90
2019-02-11T06:55:49.946Z,99.90
2019-02-11T06:58:17.673Z,99.90
2019-02-11T07:00:45.505Z,99.90
2019-02-11T07:03:13.245Z,99.90
2019-02-11T07:05:40.994Z,99.90
2019-02-11T07:08:08.709Z,99.90
2019-02-11T07:10:36.502Z,99.90
2019-02-11T07:13:04.210Z,99.90
2019-02-11T07:15:32.026Z,99.90
2019-02-11T07:17:59.769Z,99.90
2019-02-11T07:20:27.500Z,99.90
2019-02-11T07:22:55.239Z,99.90
2019-02-11T07:25:23.229Z,99.90
2019-02-11T07:27:51.081Z,99.90
2019-02-11T07:30:18.872Z,99.90
2019-02-11T07:32:46.605Z,99.90
2019-02-11T07:35:14.404Z,99.90
2019-02-11T07:37:42.117Z,99.90
2019-02-11T07:40:09.922Z,99.90
2019-02-11T07:42:54.989Z,99.90
2019-02-11T07:45:30.509Z,99.90
2019-02-11T07:47:58.237Z,99.90
2019-02-11T07:50:25.993Z,99.90
2019-02-11T07:52:53.717Z,99.90
2019-02-11T07:55:21.558Z,99.90
2019-02-11T07:57:49.529Z,99.90
2019-02-11T08:00:17.294Z,99.90
2019-02-11T08:02:45.033Z,99.90
2019-02-11T08:05:12.760Z,99.90
2019-02-11T08:07:40.502Z,99.90
2019-02-11T08:10:08.255Z,99.90
2019-02-11T08:12:35.985Z,99.90
2019-02-11T08:15:04.082Z,99.90
2019-02-11T08:17:31.845Z,99.90
2019-02-11T08:19:59.581Z,99.90
2019-02-11T08:22:27.369Z,99.90
2019-02-11T08:24:55.105Z,99.90
2019-02-11T08:27:22.997Z,99.90
2019-02-11T08:29:53.556Z,99.90
2019-02-11T08:32:22.259Z,99.90
2019-02-11T08:34:50.233Z,99.90
2019-02-11T08:37:18.065Z,99.90
2019-02-11T08:39:45.811Z,99.90
2019-02-11T08:42:13.525Z,99.90
2019-02-11T08:44:41.294Z,99.90
2019-02-11T08:47:09.047Z,99.60
2019-02-11T08:49:36.782Z,99.60
2019-02-11T08:52:04.512Z,99.90
2019-02-11T08:54:32.255Z,99.90
2019-02-11T08:56:59.993Z,99.60
2019-02-11T08:59:27.717Z,99.50
2019-02-11T09:01:55.529Z,99.00
2019-02-11T09:04:23.267Z,99.20
2019-02-11T09:06:51.118Z,98.80
2019-02-11T09:09:18.867Z,98.60
2019-02-11T09:11:46.631Z,98.90
2019-02-11T09:14:14.372Z,98.20
2019-02-11T09:16:42.258Z,98.00
2019-02-11T09:19:09.985Z,98.30
2019-02-11T09:21:37.737Z,98.70
2019-02-11T09:24:05.460Z,98.70
2019-02-11T09:26:33.165Z,98.00
2019-02-11T09:29:00.896Z,97.90
2019-02-11T09:31:28.629Z,97.90
2019-02-11T09:33:56.406Z,97.00
2019-02-11T09:36:24.194Z,97.50
2019-02-11T09:38:51.929Z,96.70
2019-02-11T09:41:19.678Z,96.70
2019-02-11T09:43:47.414Z,96.80
2019-02-11T09:46:15.131Z,96.90
2019-02-11T09:48:42.946Z,96.80
2019-02-11T09:51:10.662Z,96.60
2019-02-11T09:53:38.436Z,96.50
2019-02-11T09:56:06.143Z,96.40
2019-02-11T09:58:33.878Z,96.50
2019-02-11T10:01:01.633Z,96.70
2019-02-11T10:03:29.361Z,96.30
2019-02-11T10:05:57.003Z,96.00
2019-02-11T10:08:24.857Z,96.30
2019-02-11T10:10:52.585Z,95.00
2019-02-11T10:13:20.343Z,94.20
2019-02-11T10:15:48.039Z,93.70
2019-02-11T10:18:15.873Z,93.80
2019-02-11T10:20:43.592Z,93.80
2019-02-11T10:23:11.341Z,93.70
2019-02-11T10:25:39.102Z,93.20
2019-02-11T10:28:09.371Z,93.50
2019-02-11T10:30:37.079Z,93.70
2019-02-11T10:33:04.813Z,92.90
2019-02-11T10:35:32.531Z,93.10
2019-02-11T10:38:00.269Z,93.50
2019-02-11T10:40:28.014Z,92.70
2019-02-11T10:42:55.808Z,92.30
2019-02-11T10:45:23.549Z,91.00
2019-02-11T10:47:51.260Z,90.90
2019-02-11T10:50:19.011Z,90.90
2019-02-11T10:52:46.762Z,90.50
2019-02-11T10:55:14.802Z,90.20
2019-02-11T10:57:42.827Z,90.60
2019-02-11T11:00:15.720Z,91.10
2019-02-11T11:02:43.458Z,91.40
2019-02-11T11:05:11.565Z,92.00
2019-02-11T11:07:39.291Z,92.10
2019-02-11T11:10:10.025Z,92.10
2019-02-11T11:12:37.895Z,92.40
2019-02-11T11:15:05.826Z,92.60
2019-02-11T11:17:34.497Z,93.20
2019-02-11T11:20:02.285Z,93.80
2019-02-11T11:22:30.049Z,94.60
2019-02-11T11:24:58.014Z,95.20
2019-02-11T11:27:25.833Z,96.70
2019-02-11T11:29:53.554Z,97.10
2019-02-11T11:32:21.261Z,97.80
2019-02-11T11:34:48.989Z,97.60
2019-02-11T11:37:17.206Z,97.30
2019-02-11T11:39:44.936Z,97.10
2019-02-11T11:42:12.657Z,97.30
2019-02-11T11:44:40.425Z,97.20
2019-02-11T11:47:08.153Z,96.30
2019-02-11T11:49:35.908Z,95.50
2019-02-11T11:52:03.717Z,95.60
2019-02-11T11:54:31.538Z,95.30
2019-02-11T11:56:59.553Z,94.20
2019-02-11T11:59:27.436Z,93.50
2019-02-11T12:01:55.217Z,93.90
2019-02-11T12:04:22.949Z,92.90
2019-02-11T12:06:50.689Z,91.70
2019-02-11T12:09:18.406Z,91.20
2019-02-11T12:11:46.242Z,88.00
2019-02-11T12:14:13.989Z,86.10
2019-02-11T12:16:56.206Z,83.50
2019-02-11T12:19:11.400Z,83.50
2019-02-11T12:21:39.226Z,81.00
2019-02-11T12:24:06.935Z,78.50
2019-02-11T12:26:34.716Z,75.00
2019-02-11T12:29:02.569Z,78.20
2019-02-11T12:31:30.530Z,78.70
2019-02-11T12:33:58.218Z,78.10
2019-02-11T12:36:25.965Z,78.80
2019-02-11T12:38:53.673Z,80.90
2019-02-11T12:41:21.433Z,82.00
2019-02-11T12:43:49.536Z,81.40
2019-02-11T12:46:17.252Z,81.20
2019-02-11T12:48:44.990Z,82.20
2019-02-11T12:51:12.716Z,82.80
2019-02-11T12:53:40.431Z,83.50
2019-02-11T12:56:08.177Z,81.50
2019-02-11T12:58:35.905Z,82.40
2019-02-11T13:01:03.777Z,81.40
2019-02-11T13:03:34.526Z,78.60
2019-02-11T13:06:02.494Z,76.10
2019-02-11T13:08:30.259Z,75.90
2019-02-11T13:10:57.970Z,75.40
2019-02-11T13:13:25.709Z,76.40
2019-02-11T13:16:01.513Z,75.10
2019-02-11T13:18:23.145Z,73.90
2019-02-11T13:20:51.064Z,73.50
2019-02-11T13:23:18.798Z,74.50
2019-02-11T13:25:46.528Z,75.10
2019-02-11T13:28:14.368Z,76.50
2019-02-11T13:30:42.066Z,77.80
2019-02-11T13:33:09.784Z,77.60
2019-02-11T13:35:37.557Z,77.10
2019-02-11T13:38:05.345Z,77.10
2019-02-11T13:40:33.492Z,77.90
2019-02-11T13:43:01.206Z,78.10
2019-02-11T13:45:28.924Z,78.30
2019-02-11T13:47:58.525Z,80.10
2019-02-11T13:50:26.269Z,80.50
2019-02-11T13:52:54.000Z,77.50
2019-02-11T13:55:21.834Z,77.90
2019-02-11T13:57:49.560Z,75.50
2019-02-11T14:00:21.537Z,75.70
2019-02-11T14:02:51.117Z,73.40
2019-02-11T14:05:18.933Z,73.10
2019-02-11T14:07:46.671Z,74.20
2019-02-11T14:10:14.504Z,74.30
2019-02-11T14:12:42.259Z,73.80
2019-02-11T14:15:09.980Z,73.80
2019-02-11T14:17:37.727Z,73.90
2019-02-11T14:20:06.375Z,74.30
2019-02-11T14:22:34.104Z,75.50
2019-02-11T14:25:01.958Z,72.60
2019-02-11T14:27:29.770Z,74.90
2019-02-11T14:29:57.499Z,70.40
2019-02-11T14:32:25.209Z,69.50
2019-02-11T14:34:52.934Z,69.50
2019-02-11T14:37:20.656Z,70.70
2019-02-11T14:39:48.395Z,68.80
2019-02-11T14:42:16.150Z,66.90
2019-02-11T14:44:43.887Z,68.20
2019-02-11T14:47:11.578Z,70.40
2019-02-11T14:49:39.345Z,70.50
2019-02-11T14:52:07.078Z,72.00
2019-02-11T14:54:34.908Z,70.90
2019-02-11T14:57:02.668Z,71.80
2019-02-11T14:59:30.406Z,71.80
2019-02-11T15:01:58.117Z,71.50
2019-02-11T15:04:25.944Z,72.40
2019-02-11T15:06:53.613Z,72.90
2019-02-11T15:09:21.395Z,72.40
2019-02-11T15:11:49.209Z,71.30
2019-02-11T15:14:16.933Z,71.60
2019-02-11T15:16:44.678Z,71.90
2019-02-11T15:19:12.418Z,71.00
2019-02-11T15:21:40.237Z,73.20
2019-02-11T15:24:08.044Z,72.40
2019-02-11T15:26:35.799Z,73.30
2019-02-11T15:29:03.516Z,74.10
2019-02-11T15:31:31.241Z,72.90
2019-02-11T15:33:58.993Z,74.10
2019-02-11T15:36:26.720Z,74.40
2019-02-11T15:38:54.438Z,76.30
2019-02-11T15:41:22.180Z,76.60
2019-02-11T15:43:49.926Z,76.90
2019-02-11T15:46:17.677Z,78.60
2019-02-11T15:48:45.565Z,81.10
2019-02-11T15:51:13.307Z,82.00
2019-02-11T15:53:41.058Z,83.50
2019-02-11T15:56:09.000Z,83.70
2019-02-11T15:58:36.710Z,85.50
2019-02-11T16:01:04.474Z,86.30
2019-02-11T16:03:32.195Z,86.00
2019-02-11T16:06:06.602Z,86.20
2019-02-11T16:08:29.443Z,85.00
2019-02-11T16:11:01.357Z,85.50
2019-02-11T16:13:27.292Z,85.60
2019-02-11T16:15:55.011Z,85.80
2019-02-11T16:18:22.731Z,86.90
2019-02-11T16:20:50.467Z,87.70
2019-02-11T16:23:18.260Z,88.30
2019-02-11T16:25:46.324Z,88.00
2019-02-11T16:28:14.036Z,88.50
2019-02-11T16:30:41.917Z,88.50
2019-02-11T16:33:09.659Z,88.80
2019-02-11T16:35:37.453Z,89.00
2019-02-11T16:38:05.143Z,89.30
2019-02-11T16:40:32.875Z,89.50
2019-02-11T16:43:00.607Z,90.00
2019-02-11T16:45:28.336Z,90.10
2019-02-11T16:47:56.068Z,90.20
2019-02-11T16:50:23.821Z,90.60
2019-02-11T16:52:51.545Z,91.10
2019-02-11T16:55:19.245Z,91.30
2019-02-11T16:57:46.973Z,91.20
2019-02-11T17:00:15.802Z,91.40
2019-02-11T17:02:43.783Z,91.80
2019-02-11T17:05:11.561Z,92.00
2019-02-11T17:07:41.919Z,92.10
2019-02-11T17:10:09.731Z,92.50
2019-02-11T17:12:37.463Z,92.80
2019-02-11T17:15:06.809Z,93.20
2019-02-11T17:17:34.639Z,93.50
2019-02-11T17:20:02.402Z,93.80
2019-02-11T17:22:30.138Z,94.10
2019-02-11T17:24:57.981Z,94.20
2019-02-11T17:27:25.753Z,94.30
2019-02-11T17:29:53.493Z,94.50
2019-02-11T17:32:21.220Z,94.70
2019-02-11T17:34:48.945Z,94.90
2019-02-11T17:37:16.675Z,94.80
2019-02-11T17:39:44.429Z,95.00
2019-02-11T17:42:12.183Z,95.10
2019-02-11T17:44:39.899Z,94.80
2019-02-11T17:47:07.640Z,95.00
2019-02-11T17:49:35.353Z,94.90
2019-02-11T17:52:04.890Z,95.00
2019-02-11T17:54:32.618Z,95.00
2019-02-11T17:57:00.351Z,94.90
2019-02-11T17:59:28.092Z,95.20
2019-02-11T18:01:55.842Z,94.90
2019-02-11T18:04:23.571Z,94.90
2019-02-11T18:06:51.318Z,94.80
2019-02-11T18:09:19.027Z,95.10
2019-02-11T18:11:47.842Z,94.90
2019-02-11T18:14:15.710Z,94.90
2019-02-11T18:16:43.405Z,94.80
2019-02-11T18:19:11.123Z,94.60
2019-02-11T18:21:38.883Z,94.60
2019-02-11T18:24:06.609Z,94.50
2019-02-11T18:26:34.346Z,94.60
2019-02-11T18:29:02.202Z,94.70
2019-02-11T18:31:29.959Z,94.80
2019-02-11T18:33:57.702Z,94.70
2019-02-11T18:36:25.418Z,94.90
2019-02-11T18:38:53.150Z,95.00
2019-02-11T18:41:20.863Z,95.10
2019-02-11T18:43:48.743Z,95.20
2019-02-11T18:46:16.467Z,95.20
2019-02-11T18:48:44.228Z,95.20
2019-02-11T18:51:11.956Z,95.20
2019-02-11T18:53:39.766Z,95.10
2019-02-11T18:56:07.461Z,95.20
2019-02-11T18:58:35.226Z,95.40
2019-02-11T19:01:02.974Z,95.40
2019-02-11T19:03:30.677Z,95.30
2019-02-11T19:05:58.369Z,95.40
2019-02-11T19:08:26.125Z,95.70
2019-02-11T19:10:53.828Z,95.70
2019-02-11T19:13:21.585Z,96.00
2019-02-11T19:15:49.331Z,96.10
2019-02-11T19:18:17.042Z,96.10
2019-02-11T19:20:44.776Z,96.20
2019-02-11T19:23:12.581Z,96.20
2019-02-11T19:25:40.385Z,96.30
2019-02-11T19:28:08.093Z,96.30
2019-02-11T19:30:35.828Z,96.40
2019-02-11T19:33:03.556Z,96.40
2019-02-11T19:35:31.295Z,96.20
2019-02-11T19:37:59.006Z,96.30
2019-02-11T19:40:26.738Z,96.20
2019-02-11T19:42:54.438Z,96.20
2019-02-11T19:45:22.233Z,96.30
2019-02-11T19:47:50.166Z,96.30
2019-02-11T19:50:17.833Z,96.30
2019-02-11T19:52:45.562Z,96.30
2019-02-11T19:55:13.391Z,96.40
2019-02-11T19:57:41.102Z,96.40
2019-02-11T20:00:12.009Z,96.20
2019-02-11T20:02:39.712Z,96.30
2019-02-11T20:05:07.919Z,96.30
2019-02-11T20:07:35.641Z,96.50
2019-02-11T20:10:05.018Z,96.50
2019-02-11T20:12:32.725Z,96.60
2019-02-11T20:15:00.457Z,96.70
2019-02-11T20:17:28.177Z,96.80
2019-02-11T20:20:00.480Z,96.80
2019-02-11T20:22:27.505Z,96.90
2019-02-11T20:24:57.386Z,97.00
2019-02-11T20:27:27.212Z,97.20
2019-02-11T20:29:54.917Z,97.20
2019-02-11T20:32:22.685Z,97.30
2019-02-11T20:34:50.444Z,97.40
2019-02-11T20:37:18.153Z,97.60
2019-02-11T20:39:45.893Z,97.70
2019-02-11T20:42:13.621Z,98.00
2019-02-11T20:44:41.343Z,98.10
2019-02-11T20:47:09.087Z,98.30
2019-02-11T20:49:36.793Z,98.40
2019-02-11T20:52:04.526Z,98.60
2019-02-11T20:54:32.241Z,98.70
2019-02-11T20:57:00.009Z,98.90
2019-02-11T20:59:27.721Z,99.00
2019-02-11T21:01:55.525Z,99.10
2019-02-11T21:04:23.253Z,99.40
2019-02-11T21:06:50.983Z,99.60
2019-02-11T21:09:18.689Z,99.60
2019-02-11T21:11:46.430Z,99.50
2019-02-11T21:14:14.148Z,99.60
2019-02-11T21:16:41.866Z,99.60
2019-02-11T21:19:09.568Z,99.50
2019-02-11T21:21:37.305Z,99.50
2019-02-11T21:24:05.015Z,99.50
2019-02-11T21:26:32.782Z,99.40
2019-02-11T21:29:00.499Z,99.30
2019-02-11T21:31:28.217Z,99.60
2019-02-11T21:33:55.973Z,99.40
2019-02-11T21:36:23.701Z,99.60
2019-02-11T21:38:51.386Z,99.70
2019-02-11T21:41:19.124Z,99.70
2019-02-11T21:43:46.845Z,99.90
2019-02-11T21:46:14.605Z,99.90
2019-02-11T21:48:42.374Z,99.90
2019-02-11T21:51:10.068Z,99.90
2019-02-11T21:53:37.789Z,99.90
2019-02-11T21:56:05.525Z,99.90
2019-02-11T21:58:33.250Z,99.90
2019-02-11T22:01:02.639Z,99.90
2019-02-11T22:03:30.483Z,99.90
2019-02-11T22:05:58.181Z,99.90
2019-02-11T22:08:25.914Z,99.90
2019-02-11T22:10:53.633Z,99.90
2019-02-11T22:13:21.359Z,99.90
2019-02-11T22:15:49.073Z,99.90
2019-02-11T22:18:16.804Z,99.90
2019-02-11T22:20:44.518Z,99.90
2019-02-11T22:23:13.325Z,99.90
2019-02-11T22:25:41.082Z,99.90
2019-02-11T22:28:09.179Z,99.90
2019-02-11T22:30:36.821Z,99.90
2019-02-11T22:33:04.549Z,99.90
2019-02-11T22:35:32.265Z,99.90
2019-02-11T22:37:59.989Z,99.90
2019-02-11T22:40:27.701Z,99.90
2019-02-11T22:42:55.429Z,99.90
2019-02-11T22:45:23.137Z,99.90
2019-02-11T22:47:50.769Z,99.90
2019-02-11T22:50:18.484Z,99.90
2019-02-11T22:52:46.225Z,99.90
2019-02-11T22:55:13.960Z,99.90
2019-02-11T22:57:41.679Z,99.90
2019-02-11T23:00:22.494Z,99.90
2019-02-11T23:02:50.249Z,99.90
2019-02-11T23:05:17.966Z,99.90
2019-02-11T23:07:45.693Z,99.90
2019-02-11T23:10:13.401Z,99.90
2019-02-11T23:12:41.105Z,99.90
2019-02-11T23:15:08.854Z,99.90
2019-02-11T23:17:36.569Z,99.90
2019-02-11T23:20:04.654Z,99.90
2019-02-11T23:22:32.357Z,99.90
2019-02-11T23:25:00.193Z,99.90
2019-02-11T23:27:27.982Z,99.90
2019-02-11T23:29:55.782Z,99.90
2019-02-11T23:32:23.475Z,99.90
2019-02-11T23:34:51.201Z,99.90
2019-02-11T23:37:18.918Z,99.90
2019-02-11T23:39:46.638Z,99.90
2019-02-11T23:42:14.351Z,99.90
2019-02-11T23:44:42.113Z,99.90
2019-02-11T23:47:09.845Z,99.90
2019-02-11T23:49:37.563Z,99.90
2019-02-11T23:52:05.269Z,99.90
2019-02-11T23:54:32.997Z,99.90
2019-02-11T23:57:00.710Z,99.90
2019-02-11T23:59:28.437Z,99.90
